createdAt,value
2022-11-18T00:00:25.062Z,100112.00
2022-11-18T00:10:47.751Z,100090.00
2022-11-18T00:21:11.360Z,100096.00
2022-11-18T00:31:34.985Z,100088.00
2022-11-18T00:42:18.018Z,100112.00
2022-11-18T00:52:40.872Z,100109.00
2022-11-18T01:03:02.538Z,100106.00
2022-11-18T01:13:26.514Z,100116.00
2022-11-18T01:23:48.397Z,100118.00
2022-11-18T01:34:11.131Z,100113.00
2022-11-18T01:44:59.453Z,100115.00
2022-11-18T01:55:26.801Z,100110.00
2022-11-18T02:05:58.556Z,100121.00
2022-11-18T02:16:28.035Z,100115.00
2022-11-18T02:27:27.237Z,100119.00
2022-11-18T02:37:54.534Z,100122.00
2022-11-18T02:48:16.398Z,100138.00
2022-11-18T02:58:39.348Z,100129.00
2022-11-18T03:09:10.161Z,100114.00
2022-11-18T03:19:50.527Z,100116.00
2022-11-18T03:30:16.793Z,100132.00
2022-11-18T03:40:42.567Z,100147.00
2022-11-18T03:51:08.892Z,100153.00
2022-11-18T04:01:37.102Z,100146.00
2022-11-18T04:12:03.976Z,100171.00
2022-11-18T04:22:26.936Z,100186.00
2022-11-18T04:32:48.498Z,100177.00
2022-11-18T04:43:11.376Z,100190.00
2022-11-18T04:53:36.006Z,100215.00
2022-11-18T05:04:00.608Z,100217.00
2022-11-18T05:14:22.227Z,100212.00
2022-11-18T05:24:45.057Z,100229.00
2022-11-18T05:35:08.190Z,100227.00
2022-11-18T05:45:31.272Z,100237.00
2022-11-18T05:55:57.971Z,100239.00
2022-11-18T06:06:23.247Z,100253.00
2022-11-18T06:16:49.128Z,100280.00
2022-11-18T06:27:12.509Z,100302.00
2022-11-18T06:37:33.942Z,100290.00
2022-11-18T06:48:00.295Z,100318.00
2022-11-18T06:58:22.362Z,100326.00
2022-11-18T07:08:57.346Z,100352.00
2022-11-18T07:19:30.198Z,100337.00
2022-11-18T07:29:57.382Z,100359.00
2022-11-18T07:40:19.487Z,100354.00
2022-11-18T07:50:47.059Z,100371.00
2022-11-18T08:01:10.523Z,100376.00
2022-11-18T08:11:33.313Z,100382.00
2022-11-18T08:21:54.693Z,100392.00
2022-11-18T08:32:17.344Z,100403.00
2022-11-18T08:42:42.697Z,100406.00
2022-11-18T08:53:08.188Z,100435.00
2022-11-18T09:03:32.016Z,100446.00
2022-11-18T09:24:43.468Z,100491.00
2022-11-18T09:35:06.809Z,100504.00
2022-11-18T09:45:37.104Z,100504.00
2022-11-18T09:55:59.872Z,100509.00
2022-11-18T10:06:27.403Z,100511.00
2022-11-18T10:16:58.618Z,100545.00
2022-11-18T10:27:35.164Z,100534.00
2022-11-18T10:38:08.523Z,100541.00
2022-11-18T10:48:30.766Z,100559.00
2022-11-18T10:59:01.246Z,100565.00
2022-11-18T11:09:34.269Z,100572.00
2022-11-18T11:20:04.449Z,100569.00
2022-11-18T11:30:26.349Z,100571.00
2022-11-18T11:40:58.190Z,100580.00
2022-11-18T11:51:28.899Z,100587.00
2022-11-18T12:02:05.013Z,100592.00
2022-11-18T12:12:35.434Z,100604.00
2022-11-18T12:23:16.427Z,100610.00
2022-11-18T12:33:43.866Z,100636.00
2022-11-18T12:44:07.963Z,100635.00
2022-11-18T12:54:32.805Z,100639.00
2022-11-18T13:05:13.802Z,100653.00
2022-11-18T13:15:52.776Z,100646.00
2022-11-18T13:26:20.779Z,100671.00
2022-11-18T13:36:45.094Z,100666.00
2022-11-18T13:47:16.957Z,100666.00
2022-11-18T13:57:40.205Z,100678.00
2022-11-18T14:08:08.658Z,100681.00
2022-11-18T14:18:34.002Z,100683.00
2022-11-18T14:28:59.018Z,100714.00
2022-11-18T14:39:27.372Z,100723.00
2022-11-18T14:49:51.383Z,100756.00
2022-11-18T15:00:16.258Z,100754.00
2022-11-18T15:10:39.121Z,100764.00
2022-11-18T15:21:01.494Z,100773.00
2022-11-18T15:31:24.843Z,100777.00
2022-11-18T15:41:47.531Z,100783.00
2022-11-18T16:04:35.914Z,100805.00
2022-11-18T16:15:17.694Z,100813.00
2022-11-18T16:25:46.173Z,100835.00
2022-11-18T16:36:09.116Z,100836.00
2022-11-18T16:46:32.970Z,100847.00
2022-11-18T16:56:55.921Z,100866.00
2022-11-18T17:07:18.835Z,100871.00
2022-11-18T17:17:40.664Z,100877.00
2022-11-18T17:28:12.691Z,100879.00
2022-11-18T17:38:35.677Z,100892.00
2022-11-18T17:48:59.760Z,100903.00
2022-11-18T17:59:27.013Z,100918.00
2022-11-18T18:09:49.766Z,100916.00
2022-11-18T18:20:11.836Z,100924.00
2022-11-18T18:30:36.882Z,100936.00
2022-11-18T18:41:03.392Z,100941.00
2022-11-18T18:51:30.478Z,100943.00
2022-11-18T19:01:52.173Z,100958.00
2022-11-18T19:12:35.396Z,100960.00
2022-11-18T19:22:57.997Z,100954.00
2022-11-18T19:33:21.323Z,100961.00
2022-11-18T19:43:45.017Z,100982.00
2022-11-18T19:54:07.868Z,100988.00
2022-11-18T20:04:29.414Z,101004.00
2022-11-18T20:14:55.448Z,101006.00
2022-11-18T20:25:17.147Z,101007.00
2022-11-18T20:35:40.466Z,100997.00
2022-11-18T20:46:09.617Z,101032.00
2022-11-18T20:56:33.139Z,101031.00
2022-11-18T21:07:00.898Z,101047.00
2022-11-18T21:17:24.132Z,101060.00
2022-11-18T21:27:47.242Z,101067.00
2022-11-18T21:38:10.362Z,101073.00
2022-11-18T21:48:32.550Z,101080.00
2022-11-18T21:58:57.608Z,101080.00
2022-11-18T22:09:20.255Z,101078.00
2022-11-18T22:19:44.242Z,101073.00
2022-11-18T22:30:07.561Z,101075.00
2022-11-18T22:40:33.907Z,101077.00
2022-11-18T22:51:00.508Z,101103.00
2022-11-18T23:01:24.815Z,101107.00
2022-11-18T23:12:04.133Z,101109.00
2022-11-18T23:22:27.196Z,101118.00
2022-11-18T23:32:55.229Z,101120.00
2022-11-18T23:43:18.291Z,101120.00
2022-11-18T23:53:40.835Z,101128.00
